Time;durP1;ratioP1;P1;durP2;ratioP2;P2;SDS_P1;SDS_P2;PMS_P1;PMS_P2;Temp;Humidity;BMP_temperature;BMP_pressure;BME280_temperature;BME280_humidity;BME280_pressure;Samples;Min_cycle;Max_cycle;Signal;HPM_P1;HPM_P2
2023/07/14 00:00:15;;;;;;;2.27;1.73;;;18.60;99.90;;;;;;5078788;28;20473;-59
2023/07/14 00:02:46;;;;;;;3.70;1.80;;;18.50;99.90;;;;;;5078880;28;20470;-61
2023/07/14 00:05:17;;;;;;;3.47;1.77;;;18.40;99.90;;;;;;5078923;28;20442;-60
2023/07/14 00:07:45;;;;;;;2.60;1.47;;;18.50;99.90;;;;;;5078866;28;20427;-59
2023/07/14 00:10:18;;;;;;;2.60;2.40;;;18.30;99.90;;;;;;5078243;28;20824;-60
2023/07/14 00:12:45;;;;;;;3.50;2.10;;;18.40;99.90;;;;;;5076200;28;20966;-58
2023/07/14 00:15:13;;;;;;;3.63;2.20;;;18.40;99.90;;;;;;5076135;28;20951;-60
2023/07/14 00:17:40;;;;;;;4.40;2.20;;;17.50;99.90;;;;;;5075949;28;20537;-61
2023/07/14 00:20:24;;;;;;;2.67;2.00;;;18.30;99.90;;;;;;5077147;28;20510;-62
2023/07/14 00:22:52;;;;;;;2.13;1.93;;;18.20;99.90;;;;;;5076579;28;20751;-59
2023/07/14 00:25:22;;;;;;;2.57;2.00;;;18.40;99.90;;;;;;5076078;28;20492;-60
2023/07/14 00:27:49;;;;;;;3.53;1.90;;;17.80;99.90;;;;;;5076427;28;20461;-60
2023/07/14 00:30:18;;;;;;;2.17;1.90;;;18.40;99.90;;;;;;5075764;28;20569;-60
2023/07/14 00:32:46;;;;;;;4.70;2.70;;;18.50;99.90;;;;;;5076103;28;20434;-60
2023/07/14 00:35:22;;;;;;;4.00;2.30;;;18.40;99.90;;;;;;5076076;28;20484;-60
2023/07/14 00:37:50;;;;;;;2.20;1.90;;;18.20;99.90;;;;;;5076400;28;20557;-62
2023/07/14 00:40:19;;;;;;;6.73;3.17;;;18.70;99.90;;;;;;5075938;28;20529;-60
2023/07/14 00:42:48;;;;;;;3.43;2.20;;;18.10;99.90;;;;;;5076816;28;20530;-60
2023/07/14 00:45:19;;;;;;;3.37;2.60;;;18.20;99.90;;;;;;5080692;28;20431;-60
2023/07/14 00:47:52;;;;;;;7.20;2.87;;;18.40;99.90;;;;;;5080042;28;20434;-57
2023/07/14 00:50:28;;;;;;;4.73;2.23;;;18.20;99.90;;;;;;5080115;28;20651;-60
2023/07/14 00:52:55;;;;;;;2.90;2.20;;;;;;;;;;5080148;28;20547;-60
2023/07/14 00:55:38;;;;;;;3.57;2.33;;;18.20;99.90;;;;;;5079692;28;20465;-60
2023/07/14 00:58:15;;;;;;;2.67;2.40;;;18.30;99.90;;;;;;5079817;28;20438;-60
2023/07/14 01:01:05;;;;;;;4.03;2.23;;;18.20;99.90;;;;;;5080301;28;20510;-61
2023/07/14 01:03:32;;;;;;;2.57;2.30;;;;;;;;;;5079945;28;20518;-61
2023/07/14 01:06:03;;;;;;;2.57;1.80;;;18.30;99.90;;;;;;5079867;28;20481;-60
2023/07/14 01:08:31;;;;;;;5.80;3.20;;;17.90;99.90;;;;;;5079515;28;20477;-60
2023/07/14 01:10:58;;;;;;;5.33;2.10;;;18.00;99.90;;;;;;5079424;28;20545;-60
2023/07/14 01:13:27;;;;;;;3.43;2.37;;;17.90;99.90;;;;;;5079459;28;20526;-59
2023/07/14 01:15:54;;;;;;;3.00;2.17;;;18.00;99.90;;;;;;5079555;28;20450;-60
2023/07/14 01:18:21;;;;;;;2.53;2.20;;;18.30;99.90;;;;;;5079695;28;20529;-60
2023/07/14 01:20:51;;;;;;;2.83;2.30;;;18.10;99.90;;;;;;5079329;28;20462;-59
2023/07/14 01:23:44;;;;;;;3.40;2.77;;;17.90;99.90;;;;;;5079776;28;20545;-60
2023/07/14 01:26:25;;;;;;;2.90;2.00;;;18.10;99.90;;;;;;5079505;28;20492;-60
2023/07/14 01:28:54;;;;;;;3.33;3.03;;;17.90;99.90;;;;;;5079368;28;20484;-60
2023/07/14 01:31:24;;;;;;;2.77;2.17;;;17.70;99.90;;;;;;5079035;28;20568;-60
2023/07/14 01:33:52;;;;;;;3.73;3.17;;;17.70;99.90;;;;;;5078956;28;20482;-60
2023/07/14 01:36:21;;;;;;;4.37;2.57;;;17.40;99.90;;;;;;5079361;28;20451;-61
2023/07/14 01:38:48;;;;;;;3.97;2.80;;;;;;;;;;5079115;28;20533;-59
2023/07/14 01:41:16;;;;;;;3.27;2.90;;;17.80;99.90;;;;;;5081921;28;20450;-59
2023/07/14 01:43:46;;;;;;;3.53;2.23;;;17.60;99.90;;;;;;5081733;28;20450;-59
2023/07/14 01:46:18;;;;;;;2.50;2.30;;;17.60;99.90;;;;;;5081149;28;20663;-60
2023/07/14 01:48:59;;;;;;;3.17;2.57;;;17.60;99.90;;;;;;5081622;28;20486;-60
2023/07/14 01:51:28;;;;;;;2.70;2.50;;;17.50;99.90;;;;;;5080957;28;20481;-59
2023/07/14 01:54:02;;;;;;;3.10;2.60;;;17.30;99.90;;;;;;5080369;28;20510;-60
2023/07/14 01:56:32;;;;;;;3.20;2.90;;;17.70;99.90;;;;;;5080721;28;20433;-60
2023/07/14 01:59:05;;;;;;;6.00;2.70;;;17.40;99.90;;;;;;5080242;28;20485;-59
2023/07/14 02:01:34;;;;;;;4.77;2.90;;;17.40;99.90;;;;;;5080748;28;20886;-56
2023/07/14 02:04:05;;;;;;;4.43;2.80;;;17.50;99.90;;;;;;5081218;28;20478;-59
2023/07/14 02:06:33;;;;;;;3.10;2.80;;;17.40;99.90;;;;;;5080335;28;20430;-61
2023/07/14 02:09:01;;;;;;;3.30;2.93;;;17.50;99.90;;;;;;5081473;28;20907;-61
2023/07/14 02:11:29;;;;;;;3.60;2.80;;;17.20;99.90;;;;;;5080710;28;20493;-60
2023/07/14 02:13:57;;;;;;;3.83;2.90;;;17.40;99.90;;;;;;5081554;28;20446;-58
2023/07/14 02:16:25;;;;;;;2.80;2.23;;;17.30;99.90;;;;;;5080690;28;20449;-61
2023/07/14 02:18:55;;;;;;;7.20;2.70;;;17.20;99.90;;;;;;5082247;28;20434;-61
2023/07/14 02:21:29;;;;;;;3.30;2.77;;;17.40;99.90;;;;;;5087037;28;20446;-57
2023/07/14 02:24:00;;;;;;;4.03;3.03;;;17.30;99.90;;;;;;5087331;28;20876;-63
2023/07/14 02:26:32;;;;;;;3.20;2.90;;;17.30;99.90;;;;;;5087785;28;20449;-60
2023/07/14 02:29:01;;;;;;;3.80;2.50;;;17.30;99.90;;;;;;5088044;28;20441;-61
2023/07/14 02:31:33;;;;;;;3.53;2.47;;;17.30;99.90;;;;;;5088182;28;20509;-60
2023/07/14 02:34:01;;;;;;;2.90;2.60;;;17.30;99.90;;;;;;5087872;28;20454;-61
2023/07/14 02:36:39;;;;;;;4.47;2.97;;;17.30;99.90;;;;;;5087917;28;20553;-58
2023/07/14 02:39:06;;;;;;;3.50;2.87;;;17.40;99.90;;;;;;5087716;28;20427;-60
2023/07/14 02:41:38;;;;;;;5.40;2.87;;;17.40;99.90;;;;;;5087375;28;20453;-59
2023/07/14 02:44:08;;;;;;;3.93;2.70;;;17.40;99.90;;;;;;5087870;28;20496;-61
2023/07/14 02:46:40;;;;;;;3.50;2.43;;;17.10;99.90;;;;;;5088294;28;20503;-60
2023/07/14 02:49:09;;;;;;;3.10;2.60;;;17.40;99.90;;;;;;5088372;28;20501;-61
2023/07/14 02:51:37;;;;;;;7.07;2.50;;;17.40;99.90;;;;;;5087635;28;20482;-60
2023/07/14 02:54:12;;;;;;;2.87;2.40;;;17.40;99.90;;;;;;5086791;28;20918;-63
2023/07/14 02:56:39;;;;;;;3.00;2.33;;;17.10;99.90;;;;;;5087667;28;20505;-63
2023/07/14 02:59:07;;;;;;;3.37;2.60;;;17.50;99.90;;;;;;5086497;28;20446;-60
2023/07/14 03:01:34;;;;;;;4.17;2.40;;;;;;;;;;5085712;28;20500;-59
2023/07/14 03:04:04;;;;;;;8.93;2.47;;;;;;;;;;5085024;28;20486;-57
2023/07/14 03:06:32;;;;;;;4.67;3.10;;;17.20;99.90;;;;;;5085555;28;20546;-60
2023/07/14 03:08:59;;;;;;;4.53;2.87;;;16.50;99.90;;;;;;5086109;28;20441;-60
2023/07/14 03:11:26;;;;;;;4.13;2.83;;;17.20;99.90;;;;;;5090692;28;20526;-59
2023/07/14 03:13:52;;;;;;;6.17;3.17;;;17.00;99.90;;;;;;5097070;28;20490;-58
2023/07/14 03:16:22;;;;;;;5.23;3.47;;;16.90;99.90;;;;;;5095097;28;20438;-60
2023/07/14 03:18:49;;;;;;;5.80;3.00;;;17.10;99.90;;;;;;5095385;28;20435;-58
2023/07/14 03:21:17;;;;;;;8.50;2.70;;;;;;;;;;5095041;28;20439;-60
2023/07/14 03:23:45;;;;;;;4.80;2.80;;;17.20;99.90;;;;;;5094723;28;20457;-60
2023/07/14 03:26:14;;;;;;;4.90;2.97;;;17.80;99.90;;;;;;5095230;28;20470;-60
2023/07/14 03:28:42;;;;;;;3.40;3.10;;;17.50;99.90;;;;;;5095032;28;20484;-61
2023/07/14 03:31:10;;;;;;;3.60;2.53;;;17.20;99.90;;;;;;5095485;28;20498;-58
2023/07/14 03:33:39;;;;;;;3.73;2.70;;;17.10;99.90;;;;;;5094824;28;20473;-61
2023/07/14 03:36:09;;;;;;;5.07;3.10;;;17.40;99.90;;;;;;5095066;28;20514;-60
2023/07/14 03:38:40;;;;;;;7.40;3.50;;;17.30;99.90;;;;;;5095426;28;20510;-60
2023/07/14 03:41:08;;;;;;;2.40;2.20;;;16.90;99.90;;;;;;5094989;28;20463;-60
2023/07/14 03:43:35;;;;;;;3.27;2.73;;;;;;;;;;5084377;28;20493;-58
2023/07/14 03:46:02;;;;;;;4.20;2.77;;;;;;;;;;5084263;28;20489;-59
2023/07/14 03:48:29;;;;;;;7.90;3.27;;;17.30;99.90;;;;;;5085441;28;20979;-57
2023/07/14 03:51:00;;;;;;;4.87;2.97;;;17.40;99.90;;;;;;5085894;28;20527;-60
2023/07/14 03:53:27;;;;;;;4.40;3.10;;;17.10;99.90;;;;;;5085355;28;20951;-59
2023/07/14 03:55:54;;;;;;;5.53;3.70;;;;;;;;;;5085726;28;20450;-60
2023/07/14 03:58:23;;;;;;;7.57;3.43;;;17.40;99.90;;;;;;5092707;28;20449;-60
2023/07/14 04:00:51;;;;;;;4.77;2.70;;;17.40;99.90;;;;;;5094772;28;20431;-58
2023/07/14 04:03:18;;;;;;;5.83;3.40;;;;;;;;;;5094234;28;20489;-59
2023/07/14 04:05:46;;;;;;;4.90;3.33;;;17.40;99.90;;;;;;5094665;28;20438;-59
2023/07/14 04:08:14;;;;;;;6.17;2.90;;;17.20;99.90;;;;;;5094684;28;20433;-61
2023/07/14 04:10:40;;;;;;;5.60;3.43;;;17.20;99.90;;;;;;5094643;28;20449;-59
2023/07/14 04:13:08;;;;;;;3.30;2.87;;;17.40;99.90;;;;;;5094524;28;20434;-56
2023/07/14 04:15:36;;;;;;;4.73;3.37;;;17.50;99.90;;;;;;5094226;28;20477;-60
2023/07/14 04:18:03;;;;;;;2.83;2.60;;;;;;;;;;5093556;28;20426;-58
2023/07/14 04:20:33;;;;;;;8.60;3.40;;;17.30;99.90;;;;;;5094050;28;20461;-59
2023/07/14 04:22:59;;;;;;;3.43;3.13;;;17.50;99.90;;;;;;5094025;28;20490;-58
2023/07/14 04:25:26;;;;;;;3.87;2.97;;;17.80;99.90;;;;;;5094045;28;20445;-56
2023/07/14 04:27:54;;;;;;;4.83;3.80;;;;;;;;;;5093951;28;20462;-57
2023/07/14 04:30:21;;;;;;;4.70;3.57;;;17.60;99.90;;;;;;5094464;28;20466;-60
2023/07/14 04:32:50;;;;;;;4.93;3.20;;;17.40;99.90;;;;;;5093962;28;20482;-59
2023/07/14 04:35:17;;;;;;;4.27;3.33;;;17.30;99.90;;;;;;5094164;28;20475;-60
2023/07/14 04:37:44;;;;;;;4.67;3.10;;;17.40;99.90;;;;;;5094475;28;20461;-59
2023/07/14 04:40:12;;;;;;;6.90;3.27;;;17.70;99.90;;;;;;5093694;28;20488;-59
2023/07/14 04:42:39;;;;;;;5.20;4.30;;;17.20;99.90;;;;;;5085491;28;20459;-59
2023/07/14 04:45:07;;;;;;;5.40;3.03;;;17.40;99.90;;;;;;5078032;28;20483;-60
2023/07/14 04:47:34;;;;;;;6.50;3.17;;;17.30;99.90;;;;;;5078287;28;20482;-60
2023/07/14 04:50:03;;;;;;;4.27;3.40;;;17.80;99.90;;;;;;5085573;28;20450;-59
2023/07/14 04:52:29;;;;;;;6.10;3.43;;;17.60;99.90;;;;;;5077162;28;20539;-61
2023/07/14 04:54:57;;;;;;;4.73;3.80;;;;;;;;;;5075984;28;20466;-59
2023/07/14 04:57:23;;;;;;;7.90;4.17;;;17.40;99.90;;;;;;5076554;28;20533;-61
2023/07/14 04:59:50;;;;;;;5.10;3.80;;;17.30;99.90;;;;;;5076426;28;20482;-60
2023/07/14 05:02:17;;;;;;;5.10;3.57;;;17.60;99.90;;;;;;5075994;28;20493;-59
2023/07/14 05:04:45;;;;;;;5.77;3.70;;;17.70;99.90;;;;;;5074510;28;20446;-60
2023/07/14 05:07:19;;;;;;;6.70;3.70;;;17.70;99.90;;;;;;5077304;28;20538;-59
2023/07/14 05:09:46;;;;;;;4.80;3.40;;;;;;;;;;5074720;28;20495;-60
2023/07/14 05:12:13;;;;;;;5.10;3.20;;;17.30;99.90;;;;;;5074080;28;20492;-60
2023/07/14 05:14:41;;;;;;;4.43;3.10;;;17.00;99.90;;;;;;5074065;28;20508;-61
2023/07/14 05:17:08;;;;;;;5.60;4.20;;;17.60;99.90;;;;;;5074418;28;20474;-60
2023/07/14 05:19:35;;;;;;;11.20;3.90;;;17.70;99.90;;;;;;5075781;28;20537;-59
2023/07/14 05:22:02;;;;;;;6.13;3.37;;;17.80;99.90;;;;;;5074377;28;20565;-60
2023/07/14 05:24:31;;;;;;;5.63;3.77;;;17.70;99.90;;;;;;5076146;28;20450;-60
2023/07/14 05:26:59;;;;;;;5.37;3.73;;;17.80;99.90;;;;;;5075653;28;20446;-59
2023/07/14 05:29:26;;;;;;;5.73;3.67;;;18.30;99.90;;;;;;5079215;28;20426;-60
2023/07/14 05:31:55;;;;;;;11.73;4.30;;;17.90;99.90;;;;;;5094906;28;20466;-57
2023/07/14 05:34:22;;;;;;;4.63;4.10;;;;;;;;;;5097600;28;20468;-60
2023/07/14 05:36:49;;;;;;;4.90;3.80;;;17.90;99.90;;;;;;5082768;28;20613;-60
2023/07/14 05:39:16;;;;;;;4.83;3.60;;;18.20;99.90;;;;;;5081540;28;20462;-60
2023/07/14 05:41:44;;;;;;;5.97;4.13;;;18.60;99.90;;;;;;5081636;28;20422;-60
2023/07/14 05:44:11;;;;;;;4.43;3.73;;;;;;;;;;5082001;28;20473;-60
2023/07/14 05:46:38;;;;;;;7.37;3.83;;;18.40;99.90;;;;;;5082205;28;21037;-59
2023/07/14 05:49:05;;;;;;;3.97;3.37;;;;;;;;;;5081880;28;20445;-59
2023/07/14 05:51:33;;;;;;;5.10;4.30;;;18.80;99.90;;;;;;5081205;28;20474;-60
2023/07/14 05:53:59;;;;;;;4.87;3.70;;;18.40;99.90;;;;;;5093929;28;20470;-57
2023/07/14 05:56:29;;;;;;;7.93;4.67;;;18.50;99.90;;;;;;5082545;28;20493;-59
2023/07/14 05:58:59;;;;;;;4.00;3.20;;;18.60;99.90;;;;;;5081390;28;20570;-59
2023/07/14 06:01:26;;;;;;;3.70;3.30;;;18.70;99.90;;;;;;5081169;28;20423;-58
2023/07/14 06:03:55;;;;;;;3.77;3.23;;;18.50;99.90;;;;;;5081057;28;20474;-61
2023/07/14 06:06:22;;;;;;;4.87;3.30;;;18.80;99.90;;;;;;5080406;28;20482;-59
2023/07/14 06:08:49;;;;;;;5.63;3.07;;;18.60;99.90;;;;;;5078326;28;20882;-61
2023/07/14 06:11:16;;;;;;;5.50;3.80;;;;;;;;;;5078238;28;20457;-60
2023/07/14 06:13:43;;;;;;;4.10;3.40;;;;;;;;;;5078462;28;20458;-60
2023/07/14 06:16:12;;;;;;;4.10;3.70;;;19.10;99.90;;;;;;5078586;28;20525;-60
2023/07/14 06:18:39;;;;;;;5.90;3.70;;;;;;;;;;5078747;28;20474;-60
2023/07/14 06:21:08;;;;;;;3.70;3.03;;;19.10;99.90;;;;;;5078133;28;20442;-60
2023/07/14 06:23:34;;;;;;;7.63;3.87;;;19.20;99.90;;;;;;5078330;28;20482;-61
2023/07/14 06:26:01;;;;;;;4.67;3.27;;;19.30;99.90;;;;;;5078474;28;20471;-60
2023/07/14 06:28:28;;;;;;;3.67;2.90;;;19.90;99.90;;;;;;5078438;28;20478;-60
2023/07/14 06:30:57;;;;;;;5.60;3.37;;;19.70;99.90;;;;;;5078024;28;20546;-60
2023/07/14 06:33:26;;;;;;;3.87;3.10;;;19.50;99.90;;;;;;5077778;28;20481;-61
2023/07/14 06:35:55;;;;;;;5.13;3.50;;;19.50;99.90;;;;;;5078081;28;20533;-61
2023/07/14 06:38:23;;;;;;;6.20;4.10;;;;;;;;;;5077686;28;20474;-61
2023/07/14 06:40:56;;;;;;;4.97;3.73;;;20.20;99.90;;;;;;5077263;28;20461;-60
2023/07/14 06:43:23;;;;;;;4.37;3.37;;;;;;;;;;5078099;28;20532;-60
2023/07/14 06:45:50;;;;;;;6.93;3.37;;;19.80;99.90;;;;;;5077612;28;20860;-59
2023/07/14 06:48:17;;;;;;;4.30;3.30;;;19.70;99.90;;;;;;5077197;28;20534;-60
2023/07/14 06:50:46;;;;;;;3.97;3.00;;;19.90;99.90;;;;;;5077066;28;20470;-61
2023/07/14 06:53:14;;;;;;;4.43;3.50;;;20.00;99.90;;;;;;5077118;28;20474;-60
2023/07/14 06:55:43;;;;;;;4.77;3.80;;;;;;;;;;5077322;28;20503;-60
2023/07/14 06:58:11;;;;;;;3.53;3.23;;;20.20;99.90;;;;;;5077423;28;20454;-59
2023/07/14 07:00:38;;;;;;;8.30;3.30;;;20.40;99.90;;;;;;5079414;28;20460;-59
2023/07/14 07:03:06;;;;;;;5.10;3.00;;;20.40;99.90;;;;;;5079193;28;20511;-59
2023/07/14 07:05:37;;;;;;;3.80;3.37;;;20.40;99.90;;;;;;5078987;28;20474;-59
2023/07/14 07:08:06;;;;;;;4.90;3.43;;;20.80;99.90;;;;;;5078960;28;20746;-60
2023/07/14 07:10:34;;;;;;;4.80;3.03;;;20.80;99.90;;;;;;5078962;28;20478;-59
2023/07/14 07:13:01;;;;;;;7.20;3.53;;;20.90;99.90;;;;;;5078716;28;20598;-57
2023/07/14 07:15:28;;;;;;;3.23;2.93;;;20.90;99.90;;;;;;5079134;28;20782;-57
2023/07/14 07:17:55;;;;;;;6.20;3.23;;;21.20;99.90;;;;;;5080553;28;20511;-61
2023/07/14 07:20:22;;;;;;;4.07;2.60;;;;;;;;;;5081222;28;20442;-60
2023/07/14 07:22:49;;;;;;;4.33;2.70;;;21.50;99.90;;;;;;5081347;28;20525;-60
2023/07/14 07:25:18;;;;;;;3.60;2.47;;;22.30;99.90;;;;;;5079108;28;20494;-56
2023/07/14 07:27:45;;;;;;;6.60;2.80;;;23.30;99.90;;;;;;5079518;28;20572;-59
2023/07/14 07:30:12;;;;;;;3.80;2.50;;;23.60;99.90;;;;;;5075565;28;20986;-61
2023/07/14 07:32:40;;;;;;;3.20;2.87;;;25.10;99.90;;;;;;5075435;28;20482;-60
2023/07/14 07:35:10;;;;;;;2.73;2.40;;;26.60;99.90;;;;;;5075522;28;20547;-60
2023/07/14 07:37:37;;;;;;;4.17;2.90;;;;;;;;;;5075412;28;20533;-60
2023/07/14 07:40:06;;;;;;;5.13;2.43;;;28.90;95.00;;;;;;5076003;28;20505;-60
2023/07/14 07:42:35;;;;;;;2.67;2.33;;;29.60;91.30;;;;;;5076426;28;20472;-60
2023/07/14 07:45:02;;;;;;;3.20;2.67;;;30.40;86.00;;;;;;5076225;28;20532;-60
2023/07/14 07:47:29;;;;;;;4.17;3.07;;;31.10;78.80;;;;;;5076088;28;20939;-59
2023/07/14 07:49:56;;;;;;;3.30;2.40;;;31.70;94.00;;;;;;5076106;28;20617;-60
2023/07/14 07:52:24;;;;;;;4.10;2.37;;;31.70;71.00;;;;;;5075293;28;20500;-61
2023/07/14 07:54:51;;;;;;;3.50;2.27;;;;;;;;;;5076198;28;20523;-60
2023/07/14 07:57:18;;;;;;;3.13;2.40;;;32.50;63.00;;;;;;5075279;28;20535;-60
2023/07/14 07:59:46;;;;;;;4.83;2.10;;;33.10;82.00;;;;;;5075489;28;20454;-60
2023/07/14 08:02:13;;;;;;;3.33;3.03;;;32.60;89.40;;;;;;5075429;28;20442;-60
2023/07/14 08:04:41;;;;;;;2.67;2.00;;;32.90;89.20;;;;;;5075735;28;20473;-60
2023/07/14 08:07:20;;;;;;;2.60;1.80;;;32.90;88.00;;;;;;5075730;28;20946;-59
2023/07/14 08:09:48;;;;;;;4.90;2.13;;;32.50;58.30;;;;;;5075427;28;20474;-60
2023/07/14 08:12:15;;;;;;;6.27;3.10;;;32.60;58.20;;;;;;5075611;28;20808;-58
2023/07/14 08:14:55;;;;;;;2.97;2.20;;;32.60;57.80;;;;;;5075891;28;20508;-59
2023/07/14 08:17:24;;;;;;;2.30;2.10;;;32.90;57.20;;;;;;5075856;28;20434;-61
2023/07/14 08:19:51;;;;;;;6.60;2.37;;;33.10;56.40;;;;;;5076020;28;20764;-60
2023/07/14 08:22:19;;;;;;;11.43;8.23;;;33.80;82.20;;;;;;5075954;28;20504;-61
2023/07/14 08:24:45;;;;;;;15.93;10.63;;;33.70;80.90;;;;;;5075256;28;20481;-60
2023/07/14 08:27:14;;;;;;;5.27;2.80;;;;;;;;;;5075600;28;20452;-59
2023/07/14 08:29:41;;;;;;;2.40;1.93;;;33.40;53.80;;;;;;5076541;28;20484;-60
2023/07/14 08:32:10;;;;;;;3.10;1.90;;;33.30;53.70;;;;;;5075229;28;20573;-60
2023/07/14 08:34:37;;;;;;;2.60;1.90;;;33.30;80.20;;;;;;5080558;28;20965;-60
2023/07/14 08:37:14;;;;;;;4.63;3.57;;;33.00;53.50;;;;;;5081494;28;20493;-59
2023/07/14 08:39:41;;;;;;;2.07;1.90;;;32.80;53.80;;;;;;5081216;28;20490;-60
2023/07/14 08:42:20;;;;;;;2.80;1.90;;;32.70;53.40;;;;;;5077429;28;20465;-59
2023/07/14 08:45:07;;;;;;;1.70;1.60;;;32.80;76.40;;;;;;5077658;28;20430;-59
2023/07/14 08:47:44;;;;;;;3.23;1.80;;;32.80;53.20;;;;;;5077202;28;20461;-57
2023/07/14 08:50:18;;;;;;;2.40;2.20;;;32.80;53.30;;;;;;5077765;28;20427;-60
2023/07/14 08:52:45;;;;;;;2.67;1.80;;;32.80;53.00;;;;;;5077415;28;20589;-60
2023/07/14 08:55:15;;;;;;;2.50;1.90;;;29.60;50.90;;;;;;5077878;28;20925;-58
2023/07/14 08:57:46;;;;;;;2.17;1.77;;;33.40;52.10;;;;;;5077722;28;20478;-59
2023/07/14 09:00:20;;;;;;;3.50;2.70;;;33.80;51.60;;;;;;5079379;28;20506;-59
2023/07/14 09:02:56;;;;;;;2.10;1.60;;;33.90;51.00;;;;;;5079947;28;20899;-59
2023/07/14 09:05:27;;;;;;;1.90;1.70;;;33.80;51.00;;;;;;5083210;28;20500;-60
2023/07/14 09:07:54;;;;;;;2.00;1.50;;;33.80;51.20;;;;;;5083658;28;20439;-60
2023/07/14 09:10:31;;;;;;;3.63;2.20;;;33.50;50.70;;;;;;5081172;28;20830;-61
2023/07/14 09:13:06;;;;;;;1.73;1.60;;;33.50;50.50;;;;;;5080938;28;20491;-59
2023/07/14 09:15:34;;;;;;;4.60;2.60;;;33.60;50.60;;;;;;5082136;28;20783;-60
2023/07/14 09:18:18;;;;;;;2.53;1.70;;;33.90;49.80;;;;;;5080801;28;20466;-60
2023/07/14 09:20:59;;;;;;;2.13;1.70;;;33.70;49.70;;;;;;5080699;28;20422;-61
2023/07/14 09:23:51;;;;;;;3.00;1.70;;;33.50;50.00;;;;;;5080845;28;20473;-60
2023/07/14 09:26:29;;;;;;;3.87;2.13;;;34.00;74.20;;;;;;5064095;28;20453;-60
2023/07/14 09:28:57;;;;;;;3.40;2.43;;;34.20;75.80;;;;;;5081082;28;20439;-60
2023/07/14 09:31:37;;;;;;;2.13;1.93;;;34.10;50.40;;;;;;5081322;28;20609;-60
2023/07/14 09:34:12;;;;;;;2.97;2.03;;;34.00;48.50;;;;;;5081097;28;20561;-61
2023/07/14 09:36:40;;;;;;;1.87;1.53;;;34.00;49.00;;;;;;5080235;28;20501;-59
2023/07/14 09:39:16;;;;;;;2.53;2.20;;;34.90;64.40;;;;;;5080283;28;20870;-60
2023/07/14 09:41:46;;;;;;;3.43;1.80;;;;;;;;;;5080427;28;20426;-62
2023/07/14 09:44:13;;;;;;;3.17;1.53;;;34.30;47.60;;;;;;5080563;28;20521;-56
2023/07/14 09:46:46;;;;;;;2.53;2.00;;;34.40;47.90;;;;;;5080212;28;20476;-60
2023/07/14 09:49:24;;;;;;;2.33;1.90;;;34.10;48.30;;;;;;5080427;28;20470;-58
2023/07/14 09:52:02;;;;;;;4.33;2.20;;;34.10;48.80;;;;;;5080578;28;20422;-60
2023/07/14 09:54:29;;;;;;;1.70;1.60;;;33.80;70.70;;;;;;5079735;28;20528;-61
2023/07/14 09:57:02;;;;;;;4.20;2.23;;;33.40;74.10;;;;;;5079544;28;20478;-59
2023/07/14 09:59:29;;;;;;;2.03;1.80;;;;;;;;;;5080076;28;20427;-60
2023/07/14 10:01:59;;;;;;;2.03;1.83;;;33.50;47.80;;;;;;5079595;28;20513;-60
2023/07/14 10:04:31;;;;;;;4.03;2.97;;;33.50;48.30;;;;;;5079853;28;20549;-61
2023/07/14 10:07:29;;;;;;;5.17;1.80;;;33.30;49.20;;;;;;5079803;28;20983;-59
2023/07/14 10:09:58;;;;;;;2.20;1.83;;;32.80;77.40;;;;;;5079417;28;20484;-60
2023/07/14 10:12:36;;;;;;;2.23;2.03;;;32.80;50.50;;;;;;5079107;28;20451;-60
2023/07/14 10:15:04;;;;;;;4.40;2.07;;;;;;;;;;5078999;28;20463;-59
2023/07/14 10:17:41;;;;;;;8.27;5.83;;;32.30;50.10;;;;;;5079901;28;20430;-60
2023/07/14 10:20:18;;;;;;;2.20;1.80;;;32.60;49.00;;;;;;5079930;28;20554;-60
2023/07/14 10:22:45;;;;;;;3.37;2.10;;;;;;;;;;5087918;28;20859;-59
2023/07/14 10:25:18;;;;;;;2.43;1.60;;;32.30;49.30;;;;;;5082265;28;20838;-59
2023/07/14 10:27:58;;;;;;;2.50;2.20;;;32.20;49.60;;;;;;5082495;28;20438;-58
2023/07/14 10:30:47;;;;;;;2.37;2.17;;;30.60;81.50;;;;;;5082617;28;20518;-60
2023/07/14 10:33:21;;;;;;;3.80;2.00;;;31.20;52.50;;;;;;5083327;28;20477;-59
2023/07/14 10:35:57;;;;;;;2.30;1.77;;;29.10;54.70;;;;;;5083395;28;20970;-61
2023/07/14 10:38:28;;;;;;;2.30;2.07;;;29.40;81.60;;;;;;5083631;28;20473;-58
2023/07/14 10:40:59;;;;;;;3.80;3.40;;;29.30;55.30;;;;;;5084315;28;20495;-59
2023/07/14 10:43:30;;;;;;;4.30;2.20;;;28.70;82.00;;;;;;5083775;28;20423;-60
2023/07/14 10:46:01;;;;;;;2.90;1.53;;;28.70;87.20;;;;;;5083320;28;20476;-61
2023/07/14 10:48:33;;;;;;;3.63;2.20;;;29.00;86.80;;;;;;5083995;28;20496;-60
2023/07/14 10:51:09;;;;;;;2.60;2.40;;;29.60;85.60;;;;;;5083883;28;20505;-60
2023/07/14 10:53:42;;;;;;;2.30;2.10;;;29.50;55.30;;;;;;5079681;28;20541;-60
2023/07/14 10:56:20;;;;;;;4.33;2.70;;;30.00;84.00;;;;;;5079630;28;20434;-60
2023/07/14 10:58:53;;;;;;;3.90;2.60;;;29.90;54.40;;;;;;5079306;28;20484;-60
2023/07/14 11:01:29;;;;;;;5.00;3.87;;;29.90;83.20;;;;;;5079517;28;20453;-61
2023/07/14 11:04:03;;;;;;;2.37;1.80;;;29.40;85.70;;;;;;5078827;28;20462;-61
2023/07/14 11:06:35;;;;;;;2.40;2.20;;;29.30;53.60;;;;;;5078916;28;20480;-61
2023/07/14 11:09:03;;;;;;;2.50;2.00;;;29.00;83.40;;;;;;5079318;28;20473;-59
2023/07/14 11:11:41;;;;;;;4.03;2.10;;;28.70;84.00;;;;;;5078553;28;20911;-61
2023/07/14 11:14:20;;;;;;;3.60;2.37;;;29.00;55.30;;;;;;5078411;28;20502;-61
2023/07/14 11:16:53;;;;;;;3.63;2.73;;;28.50;86.50;;;;;;5079070;28;20434;-60
2023/07/14 11:19:28;;;;;;;3.80;2.30;;;28.40;82.50;;;;;;5078895;28;20504;-59
2023/07/14 11:22:00;;;;;;;2.90;2.30;;;28.10;86.60;;;;;;5078741;28;20949;-61
2023/07/14 11:24:34;;;;;;;2.67;1.73;;;28.10;87.50;;;;;;5079260;28;20507;-59
2023/07/14 11:27:13;;;;;;;2.87;1.90;;;28.10;88.10;;;;;;5079000;28;20514;-60
2023/07/14 11:29:46;;;;;;;3.53;1.87;;;28.10;85.50;;;;;;5078446;28;20437;-61
2023/07/14 11:32:20;;;;;;;2.70;2.40;;;28.40;56.60;;;;;;5078845;28;20427;-58
2023/07/14 11:35:00;;;;;;;2.40;2.10;;;28.80;86.00;;;;;;5078863;28;20553;-61
2023/07/14 11:37:41;;;;;;;4.57;2.20;;;28.60;87.50;;;;;;5076459;28;20435;-58
2023/07/14 11:40:19;;;;;;;2.27;2.07;;;28.40;84.20;;;;;;5075310;28;20576;-61
2023/07/14 11:42:54;;;;;;;2.53;2.33;;;28.90;84.20;;;;;;5075111;28;20521;-60
2023/07/14 11:45:23;;;;;;;5.03;2.20;;;28.60;84.60;;;;;;5076119;28;20441;-60
2023/07/14 11:47:50;;;;;;;2.00;1.87;;;;;;;;;;5075345;28;20503;-59
2023/07/14 11:50:24;;;;;;;3.93;2.30;;;28.50;87.40;;;;;;5075470;28;20442;-60
2023/07/14 11:53:09;;;;;;;4.37;3.07;;;28.70;76.90;;;;;;5079619;28;20871;-60
2023/07/14 11:55:40;;;;;;;5.40;2.30;;;28.60;85.70;;;;;;5083066;28;20462;-60
2023/07/14 11:58:17;;;;;;;4.23;2.30;;;28.30;85.40;;;;;;5082046;28;20431;-60
2023/07/14 12:00:47;;;;;;;2.10;1.73;;;28.20;87.90;;;;;;5082137;28;20435;-60
2023/07/14 12:03:28;;;;;;;2.93;2.47;;;28.10;88.70;;;;;;5081535;28;20485;-60
2023/07/14 12:06:44;;;;;;;3.27;2.00;;;27.90;89.50;;;;;;5081924;28;20470;-58
2023/07/14 12:09:16;;;;;;;3.40;2.20;;;28.10;88.40;;;;;;5001482;28;20458;-58
2023/07/14 12:11:53;;;;;;;2.13;1.83;;;28.10;64.60;;;;;;5001471;28;20496;-60
2023/07/14 12:14:39;;;;;;;2.57;2.13;;;28.30;88.80;;;;;;5053729;28;20478;-61
2023/07/14 12:17:46;;;;;;;2.07;1.77;;;28.30;56.30;;;;;;5081883;28;20470;-59
2023/07/14 12:20:36;;;;;;;5.23;2.53;;;28.50;88.30;;;;;;5081610;28;20464;-58
2023/07/14 12:23:17;;;;;;;4.93;2.13;;;28.90;88.30;;;;;;5077354;28;20480;-60
2023/07/14 12:25:52;;;;;;;2.73;2.50;;;29.20;78.00;;;;;;5081611;28;20447;-60
2023/07/14 12:28:26;;;;;;;3.53;2.70;;;28.20;85.60;;;;;;5081103;28;20495;-60
2023/07/14 12:30:54;;;;;;;3.10;1.87;;;28.10;53.70;;;;;;5081246;28;20470;-60
2023/07/14 12:33:24;;;;;;;2.50;2.30;;;27.90;87.20;;;;;;5080803;28;20438;-60
2023/07/14 12:35:52;;;;;;;3.27;2.80;;;27.60;79.50;;;;;;5082687;28;20473;-58
2023/07/14 12:38:20;;;;;;;4.03;2.83;;;27.60;55.30;;;;;;5080504;28;20474;-60
2023/07/14 12:40:51;;;;;;;2.17;1.97;;;27.60;80.00;;;;;;5080563;28;20461;-60
2023/07/14 12:43:27;;;;;;;3.30;2.80;;;27.60;88.60;;;;;;5081006;28;20442;-60
2023/07/14 12:45:56;;;;;;;3.40;2.80;;;26.80;90.00;;;;;;5081325;28;20466;-60
2023/07/14 12:48:27;;;;;;;4.20;2.57;;;27.10;81.50;;;;;;5081134;28;20474;-60
2023/07/14 12:50:54;;;;;;;4.37;2.83;;;27.50;90.30;;;;;;5080926;28;20427;-60
2023/07/14 12:53:21;;;;;;;4.63;3.13;;;27.80;87.10;;;;;;5081190;28;20817;-57
2023/07/14 12:55:49;;;;;;;5.00;3.57;;;28.10;90.00;;;;;;5081210;28;20810;-60
2023/07/14 12:58:20;;;;;;;3.13;2.47;;;28.00;85.40;;;;;;5087217;28;20504;-61
2023/07/14 13:00:47;;;;;;;3.50;2.77;;;;;;;;;;5081108;28;20477;-60
2023/07/14 13:03:17;;;;;;;4.03;2.93;;;27.80;53.50;;;;;;5081330;28;20474;-61
2023/07/14 13:05:48;;;;;;;3.97;3.33;;;;;;;;;;5080695;28;20915;-61
2023/07/14 13:08:19;;;;;;;4.30;3.50;;;27.70;89.20;;;;;;5080829;28;20435;-62
2023/07/14 13:10:48;;;;;;;3.70;3.00;;;27.50;80.60;;;;;;5080818;28;20430;-59
2023/07/14 13:13:20;;;;;;;7.60;5.97;;;27.00;84.70;;;;;;5080934;28;20498;-60
2023/07/14 13:15:50;;;;;;;5.37;3.53;;;27.20;81.10;;;;;;5079343;28;20517;-60